createdAt,value
2023-05-23T00:00:40.260Z,34.40
2023-05-23T00:03:08.829Z,35.23
2023-05-23T00:05:36.877Z,33.97
2023-05-23T00:08:05.012Z,32.10
2023-05-23T00:10:33.470Z,31.53
2023-05-23T00:13:02.731Z,31.33
2023-05-23T00:15:31.048Z,31.77
2023-05-23T00:18:00.226Z,30.90
2023-05-23T00:20:28.874Z,30.27
2023-05-23T00:22:58.565Z,30.67
2023-05-23T00:25:34.342Z,29.83
2023-05-23T00:28:03.868Z,30.37
2023-05-23T00:30:32.835Z,29.47
2023-05-23T00:33:01.155Z,31.30
2023-05-23T00:35:28.991Z,30.87
2023-05-23T00:37:57.244Z,29.80
2023-05-23T00:40:25.092Z,30.53
2023-05-23T00:42:52.781Z,30.40
2023-05-23T00:45:22.167Z,30.03
2023-05-23T00:47:51.541Z,29.43
2023-05-23T00:50:19.677Z,31.33
2023-05-23T00:52:49.333Z,29.43
2023-05-23T00:55:17.201Z,29.70
2023-05-23T00:57:45.500Z,28.63
2023-05-23T01:00:15.332Z,27.50
2023-05-23T01:02:46.340Z,28.77
2023-05-23T01:05:17.622Z,28.33
2023-05-23T01:07:45.585Z,27.87
2023-05-23T01:10:14.475Z,27.70
2023-05-23T01:12:54.524Z,28.83
2023-05-23T01:15:28.269Z,30.10
2023-05-23T01:18:03.321Z,29.57
2023-05-23T01:20:36.307Z,28.33
2023-05-23T01:23:59.192Z,26.87
2023-05-23T01:26:42.401Z,27.80
2023-05-23T01:29:18.280Z,28.17
2023-05-23T01:31:47.958Z,28.00
2023-05-23T01:34:17.090Z,27.13
2023-05-23T01:36:45.026Z,27.30
2023-05-23T01:39:13.131Z,28.50
2023-05-23T01:41:40.926Z,28.33
2023-05-23T01:44:09.041Z,27.70
2023-05-23T01:46:39.926Z,27.77
2023-05-23T01:49:12.337Z,29.00
2023-05-23T01:51:43.388Z,28.73
2023-05-23T01:54:11.287Z,29.13
2023-05-23T01:56:39.396Z,30.27
2023-05-23T01:59:07.120Z,31.97
2023-05-23T02:01:35.432Z,31.67
2023-05-23T02:04:05.289Z,31.03
2023-05-23T02:06:33.224Z,31.83
2023-05-23T02:09:01.057Z,33.30
2023-05-23T02:11:28.884Z,31.67
2023-05-23T02:13:56.757Z,31.57
2023-05-23T02:16:26.166Z,31.87
2023-05-23T02:18:56.495Z,31.87
2023-05-23T02:21:25.791Z,34.13
2023-05-23T02:23:53.682Z,33.83
2023-05-23T02:26:21.602Z,30.37
2023-05-23T02:28:49.546Z,33.73
2023-05-23T02:31:18.129Z,30.10
2023-05-23T02:33:45.939Z,29.00
2023-05-23T02:36:13.631Z,28.07
2023-05-23T02:38:42.653Z,28.83
2023-05-23T02:41:10.465Z,26.20
2023-05-23T02:43:39.283Z,29.03
2023-05-23T02:46:07.145Z,27.43
2023-05-23T02:48:34.949Z,29.20
2023-05-23T02:51:02.767Z,26.83
2023-05-23T02:53:30.518Z,26.17
2023-05-23T02:55:59.880Z,24.70
2023-05-23T02:58:27.562Z,26.93
2023-05-23T03:00:55.651Z,25.83
2023-05-23T03:03:23.833Z,26.40
2023-05-23T03:05:51.619Z,27.20
2023-05-23T03:08:19.321Z,26.37
2023-05-23T03:10:47.232Z,26.67
2023-05-23T03:13:16.413Z,26.90
2023-05-23T03:15:44.180Z,26.50
2023-05-23T03:18:12.778Z,25.93
2023-05-23T03:20:40.635Z,26.17
2023-05-23T03:23:08.634Z,28.77
2023-05-23T03:25:36.377Z,25.63
2023-05-23T03:28:04.163Z,25.47
2023-05-23T03:30:33.515Z,27.20
2023-05-23T03:33:01.973Z,28.23
2023-05-23T03:35:29.725Z,27.97
2023-05-23T03:37:57.505Z,26.93
2023-05-23T03:40:25.414Z,25.63
2023-05-23T03:43:03.969Z,26.23
2023-05-23T03:45:33.782Z,27.90
2023-05-23T03:48:01.995Z,26.73
2023-05-23T03:50:29.788Z,25.87
2023-05-23T03:52:57.560Z,24.47
2023-05-23T03:55:26.008Z,22.87
2023-05-23T03:57:53.770Z,25.63
2023-05-23T04:00:21.678Z,24.63
2023-05-23T04:02:52.072Z,24.67
2023-05-23T04:05:20.194Z,23.17
2023-05-23T04:07:47.907Z,24.87
2023-05-23T04:10:15.629Z,23.50
2023-05-23T04:12:43.651Z,23.87
2023-05-23T04:15:11.732Z,23.50
2023-05-23T04:17:39.523Z,23.13
2023-05-23T04:20:10.945Z,23.83
2023-05-23T04:22:38.721Z,25.70
2023-05-23T04:25:07.431Z,24.00
2023-05-23T04:27:36.844Z,24.27
2023-05-23T04:30:09.231Z,23.07
2023-05-23T04:32:37.883Z,23.57
2023-05-23T04:35:05.995Z,21.57
2023-05-23T04:37:35.246Z,19.87
2023-05-23T04:40:04.063Z,19.30
2023-05-23T04:42:33.578Z,19.47
2023-05-23T04:45:02.383Z,20.83
2023-05-23T04:47:37.047Z,18.93
2023-05-23T04:50:05.714Z,19.07
2023-05-23T04:52:34.933Z,19.40
2023-05-23T04:55:03.007Z,20.37
2023-05-23T04:57:30.994Z,18.30
2023-05-23T04:59:58.714Z,19.33
2023-05-23T05:02:27.075Z,19.43
2023-05-23T05:04:54.880Z,18.70
2023-05-23T05:07:22.728Z,17.23
2023-05-23T05:09:51.800Z,17.23
2023-05-23T05:12:19.505Z,17.60
2023-05-23T05:14:47.265Z,15.77
2023-05-23T05:17:15.076Z,14.83
2023-05-23T05:19:42.747Z,16.23
2023-05-23T05:22:10.425Z,15.70
2023-05-23T05:24:38.157Z,14.57
2023-05-23T05:27:09.362Z,15.67
2023-05-23T05:29:37.496Z,14.83
2023-05-23T05:32:05.616Z,15.30
2023-05-23T05:34:33.459Z,13.70
2023-05-23T05:37:01.234Z,15.43
2023-05-23T05:39:28.904Z,15.27
2023-05-23T05:41:56.692Z,16.77
2023-05-23T05:44:27.104Z,16.00
2023-05-23T05:46:55.224Z,15.93
2023-05-23T05:49:23.203Z,17.00
2023-05-23T05:51:51.761Z,16.03
2023-05-23T05:54:19.526Z,16.60
2023-05-23T05:56:48.543Z,16.90
2023-05-23T05:59:16.277Z,16.87
2023-05-23T06:01:45.833Z,17.10
2023-05-23T06:04:14.012Z,16.43
2023-05-23T06:06:41.864Z,17.47
2023-05-23T06:09:10.646Z,18.60
2023-05-23T06:11:41.127Z,17.47
2023-05-23T06:14:09.546Z,17.57
2023-05-23T06:16:37.932Z,17.43
2023-05-23T06:19:07.027Z,18.50
2023-05-23T06:21:34.813Z,17.77
2023-05-23T06:24:02.577Z,17.80
2023-05-23T06:26:30.262Z,17.83
2023-05-23T06:28:58.010Z,16.80
2023-05-23T06:31:25.787Z,16.67
2023-05-23T06:33:54.403Z,16.50
2023-05-23T06:36:23.517Z,16.70
2023-05-23T06:38:51.407Z,14.97
2023-05-23T06:41:19.149Z,14.60
2023-05-23T06:43:46.861Z,15.57
2023-05-23T06:46:14.643Z,14.20
2023-05-23T06:48:42.425Z,16.13
2023-05-23T06:51:10.667Z,15.10
2023-05-23T06:53:39.769Z,14.37
2023-05-23T06:56:07.505Z,13.83
2023-05-23T06:58:35.629Z,13.30
2023-05-23T07:01:03.332Z,13.03
2023-05-23T07:03:31.114Z,11.93
2023-05-23T07:05:58.998Z,12.07
2023-05-23T07:08:26.912Z,11.87
2023-05-23T07:10:56.036Z,12.00
2023-05-23T07:13:23.811Z,9.17
2023-05-23T07:15:51.463Z,8.40
2023-05-23T07:18:19.257Z,7.60
2023-05-23T07:20:46.960Z,7.93
2023-05-23T07:23:14.701Z,7.80
2023-05-23T07:25:53.772Z,6.83
2023-05-23T07:28:30.699Z,6.07
2023-05-23T07:30:58.730Z,5.67
2023-05-23T07:33:26.631Z,5.73
2023-05-23T07:35:54.480Z,5.33
2023-05-23T07:38:22.167Z,5.43
2023-05-23T07:40:55.608Z,5.20
2023-05-23T07:43:36.470Z,5.27
2023-05-23T07:46:04.269Z,5.20
2023-05-23T07:48:32.226Z,5.17
2023-05-23T07:51:00.190Z,5.10
2023-05-23T07:53:27.945Z,5.47
2023-05-23T07:55:55.631Z,5.77
2023-05-23T07:58:23.707Z,5.30
2023-05-23T08:00:53.308Z,5.50
2023-05-23T08:03:21.288Z,5.43
2023-05-23T08:05:49.055Z,6.47
2023-05-23T08:08:17.412Z,5.43
2023-05-23T08:10:45.759Z,6.37
2023-05-23T08:13:13.915Z,5.90
2023-05-23T08:15:41.664Z,5.83
2023-05-23T08:18:11.389Z,5.87
2023-05-23T08:20:39.315Z,5.80
2023-05-23T08:23:07.212Z,5.53
2023-05-23T08:25:34.943Z,4.83
2023-05-23T08:28:03.082Z,4.53
2023-05-23T08:30:32.724Z,4.83
2023-05-23T08:33:04.765Z,4.20
2023-05-23T08:35:36.264Z,4.60
2023-05-23T08:38:07.815Z,4.37
2023-05-23T08:40:37.549Z,4.23
2023-05-23T08:43:05.952Z,3.73
2023-05-23T08:45:34.840Z,4.07
2023-05-23T08:48:04.036Z,3.83
2023-05-23T08:50:32.062Z,3.57
2023-05-23T08:53:01.251Z,3.53
2023-05-23T08:55:30.504Z,3.57
2023-05-23T08:58:00.472Z,3.30
2023-05-23T09:00:29.879Z,3.80
2023-05-23T09:02:58.409Z,3.70
2023-05-23T09:05:27.677Z,3.70
2023-05-23T09:07:56.790Z,3.13
2023-05-23T09:10:29.851Z,3.00
2023-05-23T09:12:58.415Z,2.80
2023-05-23T09:15:27.306Z,3.07
2023-05-23T09:17:55.141Z,3.50
2023-05-23T09:20:23.288Z,3.87
2023-05-23T09:22:51.314Z,3.17
2023-05-23T09:25:19.212Z,3.80
2023-05-23T09:27:54.239Z,3.70
2023-05-23T09:30:22.084Z,4.10
2023-05-23T09:33:04.097Z,4.07
2023-05-23T09:35:32.875Z,3.90
2023-05-23T09:38:00.640Z,3.67
2023-05-23T09:40:33.202Z,4.23
2023-05-23T09:43:05.497Z,4.43
2023-05-23T09:45:34.742Z,5.00
2023-05-23T09:48:02.804Z,4.97
2023-05-23T09:50:33.574Z,4.90
2023-05-23T09:53:02.264Z,4.80
2023-05-23T09:55:30.126Z,4.93
2023-05-23T09:58:00.818Z,5.47
2023-05-23T10:00:30.078Z,5.80
2023-05-23T10:03:08.201Z,4.73
2023-05-23T10:05:39.197Z,5.13
2023-05-23T10:08:12.121Z,4.53
2023-05-23T10:11:24.998Z,5.87
2023-05-23T10:13:53.305Z,4.67
2023-05-23T10:16:39.904Z,5.00
2023-05-23T10:19:12.111Z,4.23
2023-05-23T10:21:46.866Z,4.43
2023-05-23T10:24:16.070Z,4.63
2023-05-23T10:26:46.099Z,4.90
2023-05-23T10:29:13.840Z,4.57
2023-05-23T10:31:48.541Z,4.40
2023-05-23T10:34:24.293Z,5.60
2023-05-23T10:37:00.707Z,8.40
2023-05-23T10:39:36.354Z,8.23
2023-05-23T10:42:11.233Z,4.50
2023-05-23T10:44:38.994Z,4.63
2023-05-23T10:47:08.216Z,4.80
2023-05-23T10:49:39.951Z,4.50
2023-05-23T10:52:08.368Z,4.73
2023-05-23T10:54:37.089Z,5.13
2023-05-23T10:57:05.802Z,4.90
2023-05-23T10:59:33.777Z,4.63
2023-05-23T11:02:02.615Z,5.50
2023-05-23T11:04:31.779Z,5.37
2023-05-23T11:06:59.673Z,5.00
2023-05-23T11:09:27.625Z,5.43
2023-05-23T11:11:58.220Z,5.93
2023-05-23T11:14:55.665Z,6.50
2023-05-23T11:17:34.836Z,6.50
2023-05-23T11:20:07.196Z,7.33
2023-05-23T11:22:36.024Z,6.90
2023-05-23T11:25:08.419Z,7.63
2023-05-23T11:27:38.032Z,8.17
2023-05-23T11:30:09.339Z,8.43
2023-05-23T11:32:38.135Z,7.93
2023-05-23T11:35:10.532Z,7.63
2023-05-23T11:37:40.008Z,7.80
2023-05-23T11:40:28.187Z,7.30
2023-05-23T11:42:56.444Z,7.07
2023-05-23T11:45:24.780Z,6.87
2023-05-23T11:47:52.844Z,7.90
2023-05-23T11:50:22.017Z,7.10
2023-05-23T11:52:52.346Z,7.20
2023-05-23T11:55:21.061Z,6.93
2023-05-23T11:57:49.690Z,7.00
2023-05-23T12:00:18.847Z,6.80
2023-05-23T12:02:48.824Z,6.83
2023-05-23T12:05:17.149Z,6.40
2023-05-23T12:07:47.545Z,7.10
2023-05-23T12:10:16.720Z,7.80
2023-05-23T12:12:45.304Z,7.30
2023-05-23T12:15:14.068Z,8.43
2023-05-23T12:17:45.856Z,8.80
2023-05-23T12:20:13.824Z,7.87
2023-05-23T12:22:43.051Z,9.00
2023-05-23T12:25:12.523Z,8.77
2023-05-23T12:27:43.959Z,9.33
2023-05-23T12:30:14.684Z,12.27
2023-05-23T12:32:43.599Z,10.60
2023-05-23T12:35:13.209Z,10.90
2023-05-23T12:37:43.012Z,9.83
2023-05-23T12:40:14.289Z,10.13
2023-05-23T12:42:51.717Z,9.70
2023-05-23T12:45:19.647Z,9.87
2023-05-23T12:47:47.397Z,9.93
2023-05-23T12:50:15.159Z,9.73
2023-05-23T12:52:42.927Z,11.53
2023-05-23T12:55:12.272Z,10.27
2023-05-23T12:57:40.022Z,9.80
2023-05-23T13:00:09.180Z,8.87
2023-05-23T13:02:37.430Z,8.30
2023-05-23T13:05:05.658Z,9.10
2023-05-23T13:07:33.753Z,10.70
2023-05-23T13:10:02.871Z,8.30
2023-05-23T13:12:33.002Z,7.83
2023-05-23T13:15:00.736Z,7.63
2023-05-23T13:17:28.485Z,6.97
2023-05-23T13:19:56.572Z,6.50
2023-05-23T13:22:24.583Z,6.13
2023-05-23T13:24:52.301Z,6.20
2023-05-23T13:27:20.121Z,6.13
2023-05-23T13:29:49.316Z,6.77
2023-05-23T13:32:16.994Z,6.80
2023-05-23T13:34:44.730Z,7.23
2023-05-23T13:37:12.451Z,5.73
2023-05-23T13:39:40.382Z,5.70
2023-05-23T13:42:09.106Z,5.13
2023-05-23T13:44:37.231Z,4.43
2023-05-23T13:47:13.867Z,4.17
2023-05-23T13:49:41.813Z,5.17
2023-05-23T13:52:09.614Z,5.80
2023-05-23T13:54:37.472Z,4.60
2023-05-23T13:57:05.844Z,5.10
2023-05-23T13:59:33.648Z,5.03
2023-05-23T14:02:01.565Z,6.77
2023-05-23T14:04:30.759Z,6.43
2023-05-23T14:06:58.507Z,6.80
2023-05-23T14:09:26.268Z,8.10
2023-05-23T14:11:53.987Z,8.17
2023-05-23T14:14:21.728Z,7.60
2023-05-23T14:16:51.776Z,8.67
2023-05-23T14:19:19.805Z,8.57
2023-05-23T14:21:48.853Z,8.90
2023-05-23T14:24:16.890Z,9.70
2023-05-23T14:26:44.781Z,9.27
2023-05-23T14:29:12.554Z,8.43
2023-05-23T14:31:40.335Z,8.57
2023-05-23T14:34:08.026Z,8.57
2023-05-23T14:36:37.043Z,8.60
2023-05-23T14:39:09.088Z,8.60
2023-05-23T14:41:38.628Z,10.00
2023-05-23T14:44:06.814Z,7.93
2023-05-23T14:46:34.699Z,8.23
2023-05-23T14:49:02.370Z,7.10
2023-05-23T14:51:44.837Z,6.00
2023-05-23T14:54:15.944Z,6.87
2023-05-23T14:56:43.808Z,7.33
2023-05-23T14:59:12.088Z,8.27
2023-05-23T15:01:40.740Z,7.87
2023-05-23T15:04:09.862Z,8.33
2023-05-23T15:06:38.443Z,8.40
2023-05-23T15:09:07.592Z,8.63
2023-05-23T15:11:38.570Z,9.73
2023-05-23T15:14:06.438Z,9.17
2023-05-23T15:16:36.826Z,9.37
2023-05-23T15:19:05.487Z,9.43
2023-05-23T15:21:33.279Z,10.40
2023-05-23T15:24:01.346Z,11.17
2023-05-23T15:26:29.433Z,11.57
2023-05-23T15:28:58.578Z,11.03
2023-05-23T15:31:26.593Z,10.63
2023-05-23T15:33:54.297Z,10.90
2023-05-23T15:36:22.207Z,10.83
2023-05-23T15:38:50.086Z,11.47
2023-05-23T15:41:17.912Z,10.97
2023-05-23T15:43:45.592Z,10.60
2023-05-23T15:46:14.843Z,10.67
2023-05-23T15:48:42.617Z,10.37
2023-05-23T15:51:10.318Z,10.13
2023-05-23T15:53:57.927Z,9.70
2023-05-23T15:56:26.037Z,8.10
2023-05-23T15:58:53.799Z,8.50
2023-05-23T16:01:23.065Z,9.33
2023-05-23T16:03:50.881Z,9.27
2023-05-23T16:06:18.677Z,7.80
2023-05-23T16:08:46.463Z,8.33
2023-05-23T16:11:14.262Z,8.53
2023-05-23T16:13:41.979Z,8.07
2023-05-23T16:16:09.908Z,7.23
2023-05-23T16:18:38.984Z,8.07
2023-05-23T16:21:06.882Z,7.63
2023-05-23T16:23:34.627Z,8.33
2023-05-23T16:26:02.408Z,9.43
2023-05-23T16:28:30.158Z,8.63
2023-05-23T16:30:57.927Z,8.63
2023-05-23T16:33:25.613Z,9.27
2023-05-23T16:35:54.825Z,9.37
2023-05-23T16:38:22.675Z,11.13
2023-05-23T16:40:50.437Z,11.00
2023-05-23T16:43:18.214Z,11.13
2023-05-23T16:45:46.255Z,12.03
2023-05-23T16:48:14.318Z,11.00
2023-05-23T16:50:42.719Z,9.93
2023-05-23T16:53:12.191Z,10.40
2023-05-23T16:55:40.175Z,9.03
2023-05-23T16:58:08.124Z,8.80
2023-05-23T17:00:35.869Z,9.03
2023-05-23T17:03:05.097Z,9.40
2023-05-23T17:05:33.537Z,8.93
2023-05-23T17:08:02.450Z,9.27
2023-05-23T17:10:31.581Z,9.53
2023-05-23T17:12:59.297Z,10.13
2023-05-23T17:15:27.018Z,10.30
2023-05-23T17:17:54.927Z,9.03
2023-05-23T17:20:24.362Z,8.60
2023-05-23T17:22:52.716Z,7.97
2023-05-23T17:25:20.546Z,7.30
2023-05-23T17:27:49.577Z,6.60
2023-05-23T17:30:18.552Z,6.77
2023-05-23T17:32:47.385Z,6.93
2023-05-23T17:35:15.725Z,6.60
2023-05-23T17:37:44.903Z,6.43
2023-05-23T17:40:13.355Z,5.47
2023-05-23T17:42:41.652Z,5.70
2023-05-23T17:45:11.525Z,6.03
2023-05-23T17:47:39.335Z,5.33
2023-05-23T17:50:08.524Z,5.17
2023-05-23T17:52:36.503Z,5.63
2023-05-23T17:55:04.434Z,5.57
2023-05-23T17:57:32.204Z,5.60
2023-05-23T18:00:00.196Z,5.97
2023-05-23T18:02:29.322Z,6.17
2023-05-23T18:04:57.480Z,6.43
2023-05-23T18:07:25.322Z,5.63
2023-05-23T18:09:52.975Z,5.70
2023-05-23T18:12:20.719Z,6.37
2023-05-23T18:14:49.452Z,6.67
2023-05-23T18:17:18.535Z,7.20
2023-05-23T18:19:47.986Z,6.60
2023-05-23T18:22:16.630Z,6.67
2023-05-23T18:24:44.527Z,5.67
2023-05-23T18:27:12.338Z,5.00
2023-05-23T18:29:40.003Z,5.30
2023-05-23T18:32:08.132Z,4.67
2023-05-23T18:34:35.867Z,5.40
2023-05-23T18:37:05.102Z,4.90
2023-05-23T18:39:32.760Z,4.97
2023-05-23T18:42:00.526Z,4.97
2023-05-23T18:44:28.213Z,5.07
2023-05-23T18:46:55.909Z,5.57
2023-05-23T18:49:23.641Z,5.17
2023-05-23T18:51:54.296Z,4.60
2023-05-23T18:54:23.335Z,4.47
2023-05-23T18:56:51.038Z,4.50
2023-05-23T18:59:18.713Z,4.17
2023-05-23T19:01:46.453Z,4.83
2023-05-23T19:04:14.289Z,4.40
2023-05-23T19:06:42.017Z,4.43
2023-05-23T19:09:11.502Z,4.27
2023-05-23T19:11:40.971Z,4.50
2023-05-23T19:14:08.624Z,4.57
2023-05-23T19:16:36.497Z,4.23
2023-05-23T19:19:04.516Z,3.90
2023-05-23T19:21:32.557Z,5.20
2023-05-23T19:24:00.452Z,4.13
2023-05-23T19:26:28.134Z,4.00
2023-05-23T19:28:57.105Z,5.10
2023-05-23T19:31:24.880Z,4.37
2023-05-23T19:33:52.640Z,4.70
2023-05-23T19:36:20.316Z,4.80
2023-05-23T19:38:48.021Z,4.20
2023-05-23T19:41:15.757Z,4.67
2023-05-23T19:43:43.678Z,4.70
2023-05-23T19:46:13.588Z,4.30
2023-05-23T19:48:41.348Z,4.50
2023-05-23T19:51:09.077Z,4.17
2023-05-23T19:53:36.696Z,4.30
2023-05-23T19:56:04.662Z,4.77
2023-05-23T19:58:32.324Z,5.63
2023-05-23T20:01:00.025Z,4.53
2023-05-23T20:03:29.529Z,4.30
2023-05-23T20:05:57.701Z,4.07
2023-05-23T20:08:25.378Z,5.00
2023-05-23T20:10:53.124Z,4.77
2023-05-23T20:13:21.442Z,4.77
2023-05-23T20:15:49.197Z,4.60
2023-05-23T20:18:17.624Z,4.50
2023-05-23T20:20:46.638Z,4.90
2023-05-23T20:23:14.404Z,4.73
2023-05-23T20:25:43.238Z,4.47
2023-05-23T20:28:11.070Z,4.40
2023-05-23T20:30:38.781Z,4.33
2023-05-23T20:33:06.553Z,5.03
2023-05-23T20:35:34.208Z,4.93
2023-05-23T20:38:03.627Z,4.27
2023-05-23T20:40:33.553Z,4.90
2023-05-23T20:43:04.723Z,4.60
2023-05-23T20:45:33.093Z,4.60
2023-05-23T20:48:01.471Z,4.97
2023-05-23T20:50:31.211Z,4.67
2023-05-23T20:53:00.666Z,4.50
2023-05-23T20:55:34.864Z,4.40
2023-05-23T20:58:02.686Z,4.63
2023-05-23T21:00:30.413Z,4.90
2023-05-23T21:02:58.176Z,4.93
2023-05-23T21:05:26.255Z,5.03
2023-05-23T21:07:54.094Z,4.50
2023-05-23T21:10:22.200Z,4.83
2023-05-23T21:12:51.669Z,4.97
2023-05-23T21:15:19.581Z,4.77
2023-05-23T21:17:47.393Z,4.70
2023-05-23T21:20:16.180Z,5.13
2023-05-23T21:22:43.987Z,4.37
2023-05-23T21:25:12.065Z,4.73
2023-05-23T21:27:41.003Z,5.10
2023-05-23T21:30:11.839Z,5.07
2023-05-23T21:32:39.536Z,5.00
2023-05-23T21:35:08.577Z,5.60
2023-05-23T21:37:36.218Z,5.03
2023-05-23T21:40:04.049Z,5.03
2023-05-23T21:42:31.799Z,5.23
2023-05-23T21:44:59.445Z,6.60
2023-05-23T21:47:28.441Z,6.73
2023-05-23T21:49:56.095Z,5.30
2023-05-23T21:52:23.711Z,6.27
2023-05-23T21:54:51.630Z,5.97
2023-05-23T21:57:19.345Z,5.30
2023-05-23T21:59:47.095Z,5.73
2023-05-23T22:02:15.419Z,5.27
2023-05-23T22:04:44.811Z,4.83
2023-05-23T22:07:12.575Z,5.60
2023-05-23T22:09:40.207Z,5.40
2023-05-23T22:12:08.212Z,5.27
2023-05-23T22:14:35.830Z,4.70
2023-05-23T22:17:04.258Z,4.80
2023-05-23T22:19:32.032Z,5.00
2023-05-23T22:22:01.197Z,5.43
2023-05-23T22:24:29.195Z,4.97
2023-05-23T22:26:58.272Z,4.97
2023-05-23T22:29:26.249Z,5.17
2023-05-23T22:31:54.058Z,5.30
2023-05-23T22:34:21.786Z,4.50
2023-05-23T22:36:49.474Z,5.10
2023-05-23T22:39:18.621Z,5.40
2023-05-23T22:41:46.739Z,5.47
2023-05-23T22:44:14.373Z,4.80
2023-05-23T22:46:43.350Z,5.00
2023-05-23T22:49:11.183Z,5.13
2023-05-23T22:51:38.833Z,5.00
2023-05-23T22:54:06.612Z,5.03
2023-05-23T22:56:35.733Z,4.60
2023-05-23T22:59:03.337Z,5.40
2023-05-23T23:01:31.410Z,4.17
2023-05-23T23:03:59.136Z,5.00
2023-05-23T23:06:26.840Z,4.63
2023-05-23T23:08:54.506Z,4.73
2023-05-23T23:11:22.271Z,4.33
2023-05-23T23:13:51.273Z,4.90
2023-05-23T23:16:19.510Z,5.00
2023-05-23T23:18:47.315Z,4.80
2023-05-23T23:21:15.010Z,5.27
2023-05-23T23:23:42.767Z,4.47
2023-05-23T23:26:10.753Z,5.63
2023-05-23T23:28:38.707Z,4.27
2023-05-23T23:31:07.766Z,5.17
2023-05-23T23:33:35.599Z,4.77
2023-05-23T23:36:03.355Z,4.80
2023-05-23T23:38:31.020Z,4.27
2023-05-23T23:40:58.691Z,4.53
2023-05-23T23:43:26.329Z,4.40
2023-05-23T23:45:53.996Z,4.33
2023-05-23T23:48:23.036Z,4.77
2023-05-23T23:50:50.686Z,4.67
2023-05-23T23:53:21.311Z,4.63
2023-05-23T23:55:49.114Z,4.23
2023-05-23T23:58:17.312Z,3.67
